Time;durP1;ratioP1;P1;durP2;ratioP2;P2;SDS_P1;SDS_P2;PMS_P1;PMS_P2;Temp;Humidity;BMP_temperature;BMP_pressure;BME280_temperature;BME280_humidity;BME280_pressure;Samples;Min_cycle;Max_cycle;Signal;HPM_P1;HPM_P2
2021/10/05 00:00:08;;;;;;;1.07;0.87;;;;;;;;;;5038564;28;20526;-65
2021/10/05 00:02:41;;;;;;;1.63;1.00;;;;;;;;;;5046230;28;20193;-65
2021/10/05 00:05:14;;;;;;;1.60;0.97;;;;;;;;;;5064787;28;20202;-65
2021/10/05 00:07:45;;;;;;;1.77;1.00;;;;;;;;;;5071162;28;20290;-65
2021/10/05 00:10:22;;;;;;;1.50;0.97;;;;;;;;;;5047342;28;20503;-65
2021/10/05 00:12:55;;;;;;;1.43;1.00;;;;;;;;;;5067331;28;20216;-65
2021/10/05 00:15:36;;;;;;;1.30;1.00;;;;;;;;;;5064317;28;20197;-65
2021/10/05 00:18:06;;;;;;;4.83;1.13;;;;;;;;;;5067486;28;20217;-65
2021/10/05 00:20:37;;;;;;;0.80;0.80;;;;;;;;;;5046963;28;20624;-65
2021/10/05 00:23:10;;;;;;;0.97;0.87;;;;;;;;;;5069645;28;20201;-65
2021/10/05 00:25:38;;;;;;;0.93;0.80;;;;;;;;;;5067682;28;20263;-65
2021/10/05 00:28:07;;;;;;;0.73;0.73;;;;;;;;;;5063147;28;20214;-65
2021/10/05 00:30:40;;;;;;;0.80;0.77;;;;;;;;;;5065696;28;20221;-65
2021/10/05 00:33:12;;;;;;;1.07;0.97;;;;;;;;;;5049001;28;20240;-65
2021/10/05 00:35:42;;;;;;;1.47;0.73;;;;;;;;;;5068265;28;20202;-65
2021/10/05 00:38:15;;;;;;;1.73;1.00;;;;;;;;;;5065702;28;20202;-65
2021/10/05 00:40:44;;;;;;;1.20;0.90;;;;;;;;;;5048662;28;20194;-65
2021/10/05 00:43:20;;;;;;;1.20;0.70;;;;;;;;;;5045181;28;20208;-65
2021/10/05 00:45:51;;;;;;;0.90;0.80;;;;;;;;;;5049385;28;20201;-65
2021/10/05 00:48:22;;;;;;;1.10;0.90;;;;;;;;;;5063055;28;20631;-65
2021/10/05 00:50:59;;;;;;;0.90;0.80;;;;;;;;;;5060548;28;20730;-65
2021/10/05 00:53:29;;;;;;;1.83;0.80;;;;;;;;;;5051711;28;20812;-65
2021/10/05 00:56:03;;;;;;;2.30;0.80;;;;;;;;;;5068373;28;20717;-65
2021/10/05 00:58:31;;;;;;;1.40;1.00;;;;;;;;;;5034748;28;20197;-66
2021/10/05 01:01:03;;;;;;;1.93;0.80;;;;;;;;;;5069212;28;20205;-65
2021/10/05 01:03:35;;;;;;;1.17;0.87;;;;;;;;;;5068094;28;20214;-65
2021/10/05 01:06:08;;;;;;;1.27;0.67;;;;;;;;;;5051951;28;20572;-65
2021/10/05 01:08:40;;;;;;;1.17;0.60;;;;;;;;;;5068016;28;20926;-64
2021/10/05 01:11:13;;;;;;;1.27;0.80;;;;;;;;;;5066818;28;20541;-65
2021/10/05 01:13:40;;;;;;;1.13;0.97;;;;;;;;;;5070315;28;20216;-65
2021/10/05 01:16:12;;;;;;;2.73;0.80;;;;;;;;;;5065328;28;20237;-65
2021/10/05 01:18:42;;;;;;;1.20;0.70;;;;;;;;;;5068605;28;20579;-65
2021/10/05 01:21:11;;;;;;;1.00;0.90;;;;;;;;;;5049863;28;20197;-65
2021/10/05 01:23:46;;;;;;;1.63;0.90;;;;;;;;;;5066127;28;20618;-65
2021/10/05 01:26:16;;;;;;;1.43;0.80;;;;;;;;;;5068392;28;20600;-65
2021/10/05 01:28:47;;;;;;;1.93;0.87;;;;;;;;;;5066965;28;20222;-65
2021/10/05 01:31:14;;;;;;;2.60;0.90;;;;;;;;;;5070061;28;20623;-65
2021/10/05 01:33:44;;;;;;;1.27;0.80;;;;;;;;;;5067762;28;20232;-65
2021/10/05 01:36:14;;;;;;;1.23;0.80;;;;;;;;;;5070015;28;20209;-64
2021/10/05 01:38:45;;;;;;;1.30;0.80;;;;;;;;;;5064522;28;20190;-64
2021/10/05 01:41:17;;;;;;;0.80;0.70;;;;;;;;;;5071149;28;20212;-64
2021/10/05 01:43:49;;;;;;;1.10;0.70;;;;;;;;;;5051070;28;20197;-65
2021/10/05 01:46:20;;;;;;;2.03;0.93;;;;;;;;;;5050492;28;20197;-64
2021/10/05 01:48:52;;;;;;;1.37;0.80;;;;;;;;;;5072894;28;20256;-64
2021/10/05 01:51:25;;;;;;;1.43;0.90;;;;;;;;;;5086629;28;20206;-64
2021/10/05 01:53:55;;;;;;;1.87;1.00;;;;;;;;;;5086439;28;21097;-64
2021/10/05 01:56:26;;;;;;;0.90;0.73;;;;;;;;;;5079580;28;20221;-64
2021/10/05 01:58:57;;;;;;;1.97;0.97;;;;;;;;;;5087208;28;20272;-64
2021/10/05 02:01:27;;;;;;;0.97;0.80;;;;;;;;;;5082950;28;20228;-64
2021/10/05 02:04:00;;;;;;;2.20;0.70;;;;;;;;;;5086501;28;20213;-64
2021/10/05 02:06:31;;;;;;;1.37;0.80;;;;;;;;;;5065045;28;20204;-64
2021/10/05 02:09:04;;;;;;;0.97;0.73;;;;;;;;;;5073143;28;20217;-64
2021/10/05 02:11:32;;;;;;;1.03;0.93;;;;;;;;;;5070634;28;20216;-64
2021/10/05 02:14:05;;;;;;;0.87;0.80;;;;;;;;;;5091036;28;20194;-64
2021/10/05 02:16:46;;;;;;;0.80;0.80;;;;;;;;;;5081799;28;20225;-64
2021/10/05 02:19:19;;;;;;;1.10;0.70;;;;;;;;;;5088939;28;20254;-64
2021/10/05 02:21:52;;;;;;;1.90;1.07;;;;;;;;;;5070079;28;20197;-64
2021/10/05 02:26:50;;;;;;;1.53;0.70;;;;;;;;;;5084040;28;20694;-65
2021/10/05 02:29:21;;;;;;;1.10;0.77;;;;;;;;;;5088892;28;20201;-65
2021/10/05 02:31:51;;;;;;;1.00;0.70;;;;;;;;;;5087011;28;20197;-65
2021/10/05 02:34:34;;;;;;;1.63;0.77;;;;;;;;;;5099342;28;21226;-65
2021/10/05 02:37:07;;;;;;;1.47;0.80;;;;;;;;;;5072919;28;20213;-64
2021/10/05 02:39:38;;;;;;;1.07;0.60;;;;;;;;;;5078908;28;20201;-64
2021/10/05 02:42:10;;;;;;;0.93;0.70;;;;;;;;;;5073373;28;20213;-64
2021/10/05 02:44:42;;;;;;;1.47;1.07;;;;;;;;;;5081179;28;20201;-64
2021/10/05 02:47:12;;;;;;;1.17;0.80;;;;;;;;;;5090049;28;20217;-64
2021/10/05 02:49:43;;;;;;;1.67;0.73;;;;;;;;;;5085240;28;20224;-64
2021/10/05 02:52:14;;;;;;;1.33;0.93;;;;;;;;;;5087853;28;20234;-64
2021/10/05 02:54:48;;;;;;;0.97;0.77;;;;;;;;;;5089954;28;20212;-64
2021/10/05 02:57:19;;;;;;;1.30;0.80;;;;;;;;;;5082689;28;20208;-64
2021/10/05 02:59:53;;;;;;;1.73;1.00;;;;;;;;;;5070207;28;20649;-64
2021/10/05 03:02:34;;;;;;;0.80;0.70;;;;;;;;;;5081221;28;20688;-65
2021/10/05 03:05:06;;;;;;;1.33;0.83;;;;;;;;;;5086473;28;20744;-65
2021/10/05 03:07:37;;;;;;;1.03;0.80;;;;;;;;;;5082768;28;20217;-64
2021/10/05 03:10:16;;;;;;;0.80;0.80;;;;;;;;;;5093455;28;20651;-65
2021/10/05 03:12:47;;;;;;;0.67;0.67;;;;;;;;;;5087932;28;20203;-65
2021/10/05 03:15:18;;;;;;;0.80;0.70;;;;;;;;;;5069020;28;20655;-64
2021/10/05 03:17:50;;;;;;;1.07;0.80;;;;;;;;;;5100456;28;20718;-65
2021/10/05 03:20:18;;;;;;;0.83;0.70;;;;;;;;;;5087298;28;20638;-64
2021/10/05 03:22:56;;;;;;;2.20;0.70;;;;;;;;;;5087532;28;20196;-64
2021/10/05 03:25:26;;;;;;;0.63;0.63;;;;;;;;;;5087737;28;20208;-64
2021/10/05 03:27:59;;;;;;;0.70;0.63;;;;;;;;;;5084071;28;20243;-64
2021/10/05 03:30:30;;;;;;;1.43;0.87;;;;;;;;;;5085964;28;20216;-64
2021/10/05 03:32:59;;;;;;;0.83;0.80;;;;;;;;;;5085790;28;20203;-64
2021/10/05 03:35:29;;;;;;;2.73;0.73;;;;;;;;;;5069332;28;20192;-64
2021/10/05 03:38:01;;;;;;;1.03;0.90;;;;;;;;;;5086775;28;20232;-64
2021/10/05 03:40:32;;;;;;;1.23;0.77;;;;;;;;;;5063201;28;20209;-64
2021/10/05 03:43:04;;;;;;;0.93;0.70;;;;;;;;;;5087469;28;20193;-64
2021/10/05 03:45:34;;;;;;;0.60;0.60;;;;;;;;;;5077782;28;20217;-64
2021/10/05 03:48:05;;;;;;;1.70;0.80;;;;;;;;;;5054721;28;20241;-64
2021/10/05 03:50:36;;;;;;;2.43;0.90;;;;;;;;;;5062730;28;20241;-64
2021/10/05 03:53:20;;;;;;;0.87;0.80;;;;;;;;;;5056849;28;20237;-66
2021/10/05 03:55:53;;;;;;;1.27;0.80;;;;;;;;;;5064046;28;20220;-66
2021/10/05 03:58:23;;;;;;;0.97;0.60;;;;;;;;;;5062750;28;20209;-66
2021/10/05 04:00:52;;;;;;;0.80;0.70;;;;;;;;;;5065773;28;20263;-66
2021/10/05 04:03:23;;;;;;;0.60;0.60;;;;;;;;;;5064234;28;20210;-66
2021/10/05 04:05:54;;;;;;;0.73;0.73;;;;;;;;;;5064328;28;20189;-66
2021/10/05 04:08:28;;;;;;;1.70;0.70;;;;;;;;;;5065255;28;20202;-66
2021/10/05 04:10:56;;;;;;;0.83;0.77;;;;;;;;;;5067045;28;20204;-66
2021/10/05 04:13:31;;;;;;;2.20;0.90;;;;;;;;;;5048669;28;20293;-66
2021/10/05 04:16:03;;;;;;;1.13;0.80;;;;;;;;;;5060210;28;20225;-66
2021/10/05 04:18:35;;;;;;;1.17;0.70;;;;;;;;;;5064740;28;21026;-66
2021/10/05 04:21:05;;;;;;;1.03;0.73;;;;;;;;;;5053789;28;20261;-66
2021/10/05 04:23:34;;;;;;;1.33;0.80;;;;;;;;;;5063885;28;20624;-66
2021/10/05 04:26:06;;;;;;;1.17;0.60;;;;;;;;;;5036270;28;20517;-66
2021/10/05 04:28:41;;;;;;;0.77;0.70;;;;;;;;;;5063619;28;20209;-66
2021/10/05 04:31:12;;;;;;;0.70;0.70;;;;;;;;;;5056406;28;20668;-66
2021/10/05 04:33:45;;;;;;;1.13;0.97;;;;;;;;;;5069862;28;20198;-66
2021/10/05 04:36:14;;;;;;;0.70;0.60;;;;;;;;;;5061919;28;20263;-66
2021/10/05 04:38:48;;;;;;;1.40;0.60;;;;;;;;;;5053924;28;20232;-66
2021/10/05 04:41:18;;;;;;;1.10;0.90;;;;;;;;;;5081188;28;20229;-66
2021/10/05 04:43:50;;;;;;;1.67;0.90;;;;;;;;;;5084320;28;20201;-66
2021/10/05 04:46:21;;;;;;;1.00;0.90;;;;;;;;;;5063104;28;20208;-65
2021/10/05 04:48:52;;;;;;;1.93;0.90;;;;;;;;;;5073236;28;20194;-66
2021/10/05 04:51:21;;;;;;;1.40;0.73;;;;;;;;;;5102408;28;20621;-66
2021/10/05 04:53:53;;;;;;;2.27;0.67;;;;;;;;;;5092059;28;20209;-66
2021/10/05 04:56:23;;;;;;;1.13;0.80;;;;;;;;;;5089426;28;20296;-66
2021/10/05 04:58:54;;;;;;;1.03;0.73;;;;;;;;;;5079816;28;20209;-66
2021/10/05 05:01:26;;;;;;;2.33;1.00;;;;;;;;;;5088999;28;20184;-67
2021/10/05 05:03:57;;;;;;;1.00;0.83;;;;;;;;;;5088563;28;20200;-66
2021/10/05 05:06:28;;;;;;;1.27;0.80;;;;;;;;;;5086747;28;20262;-66
2021/10/05 05:09:02;;;;;;;1.37;0.90;;;;;;;;;;5091167;28;20262;-66
2021/10/05 05:11:33;;;;;;;1.47;0.90;;;;;;;;;;5089820;28;20240;-66
2021/10/05 05:14:10;;;;;;;0.73;0.70;;;;;;;;;;5089220;28;20207;-66
2021/10/05 05:16:47;;;;;;;5.73;1.20;;;;;;;;;;5086886;28;20217;-66
2021/10/05 05:19:20;;;;;;;18.47;4.67;;;;;;;;;;5087886;28;20216;-67
2021/10/05 05:21:50;;;;;;;21.00;4.53;;;;;;;;;;5082352;28;20738;-67
2021/10/05 05:24:21;;;;;;;26.40;5.37;;;;;;;;;;5064753;28;20204;-66
2021/10/05 05:26:50;;;;;;;25.67;4.90;;;;;;;;;;5088136;28;20209;-67
2021/10/05 05:29:23;;;;;;;23.47;5.07;;;;;;;;;;5070451;28;20274;-66
2021/10/05 05:31:58;;;;;;;22.17;5.53;;;;;;;;;;5070682;28;20207;-66
2021/10/05 05:34:29;;;;;;;18.00;4.77;;;;;;;;;;5084356;28;20205;-66
2021/10/05 05:37:03;;;;;;;14.77;4.67;;;;;;;;;;5072205;28;20204;-66
2021/10/05 05:39:42;;;;;;;16.10;4.43;;;;;;;;;;5085578;28;20240;-66
2021/10/05 05:42:14;;;;;;;11.50;3.73;;;;;;;;;;5092182;28;20320;-69
2021/10/05 05:44:44;;;;;;;12.17;4.30;;;;;;;;;;5086160;28;20200;-69
2021/10/05 05:47:16;;;;;;;12.80;3.77;;;;;;;;;;5078307;28;20213;-66
2021/10/05 05:49:44;;;;;;;6.70;3.30;;;;;;;;;;5089529;28;20316;-66
2021/10/05 05:52:14;;;;;;;9.57;3.30;;;;;;;;;;5086846;27;20308;-66
2021/10/05 05:54:44;;;;;;;10.43;3.50;;;;;;;;;;5106443;27;20381;-66
2021/10/05 05:57:16;;;;;;;10.23;3.33;;;;;;;;;;5083440;28;20229;-66
2021/10/05 05:59:47;;;;;;;7.60;3.27;;;;;;;;;;5089768;28;20197;-67
2021/10/05 06:02:15;;;;;;;6.10;2.90;;;;;;;;;;5085742;28;20577;-64
2021/10/05 06:04:45;;;;;;;6.63;2.53;;;;;;;;;;5065211;28;20439;-64
2021/10/05 06:07:15;;;;;;;5.83;2.10;;;;;;;;;;5087594;28;20543;-63
2021/10/05 06:09:47;;;;;;;6.10;1.97;;;;;;;;;;5090376;28;20214;-63
2021/10/05 06:12:20;;;;;;;6.17;2.43;;;;;;;;;;5089053;28;20635;-64
2021/10/05 06:14:50;;;;;;;7.70;2.27;;;;;;;;;;5084437;28;20260;-64
2021/10/05 06:17:23;;;;;;;5.40;2.03;;;;;;;;;;5087121;28;20273;-66
2021/10/05 06:19:53;;;;;;;3.77;1.77;;;;;;;;;;5071211;28;20199;-66
2021/10/05 06:22:27;;;;;;;4.43;2.00;;;;;;;;;;5085152;28;20206;-69
2021/10/05 06:24:58;;;;;;;3.70;1.30;;;;;;;;;;5086171;28;20209;-68
2021/10/05 06:27:28;;;;;;;3.70;1.97;;;;;;;;;;5087015;28;20298;-68
2021/10/05 06:30:00;;;;;;;6.97;1.80;;;;;;;;;;5084116;28;20215;-69
2021/10/05 06:32:29;;;;;;;2.83;1.33;;;;;;;;;;5064903;28;20284;-67
2021/10/05 06:35:00;;;;;;;1.43;1.10;;;;;;;;;;5084156;28;20213;-68
2021/10/05 06:37:44;;;;;;;1.50;1.37;;;;;;;;;;5087324;28;20721;-67
2021/10/05 06:40:15;;;;;;;1.60;1.30;;;;;;;;;;5086386;28;20229;-68
2021/10/05 06:42:46;;;;;;;3.20;1.23;;;;;;;;;;5093662;28;20201;-69
2021/10/05 06:45:19;;;;;;;2.90;1.40;;;;;;;;;;5085770;28;20256;-68
2021/10/05 06:47:50;;;;;;;2.90;1.70;;;;;;;;;;5078892;28;20298;-67
2021/10/05 06:50:19;;;;;;;5.90;1.93;;;;;;;;;;5072145;28;20229;-67
2021/10/05 06:52:47;;;;;;;2.33;1.70;;;;;;;;;;5060628;28;20214;-66
2021/10/05 06:55:17;;;;;;;3.90;1.77;;;;;;;;;;5066487;28;20538;-67
2021/10/05 06:57:47;;;;;;;3.03;1.50;;;;;;;;;;5063675;28;20209;-67
2021/10/05 07:00:19;;;;;;;2.97;1.40;;;;;;;;;;5063908;28;20197;-67
2021/10/05 07:02:49;;;;;;;2.30;1.30;;;;;;;;;;5063637;28;20350;-67
2021/10/05 07:05:23;;;;;;;2.80;1.03;;;;;;;;;;5049953;28;20223;-67
2021/10/05 07:07:53;;;;;;;3.27;1.50;;;;;;;;;;5049975;28;20214;-67
2021/10/05 07:10:24;;;;;;;2.30;1.30;;;;;;;;;;5055753;28;20189;-68
2021/10/05 07:13:09;;;;;;;3.47;1.67;;;;;;;;;;5064381;28;20209;-67
2021/10/05 07:15:38;;;;;;;2.37;1.40;;;;;;;;;;5054367;28;20652;-66
2021/10/05 07:18:11;;;;;;;5.00;1.60;;;;;;;;;;5064118;28;20227;-66
2021/10/05 07:20:42;;;;;;;4.20;1.40;;;;;;;;;;5059517;28;20747;-65
2021/10/05 07:23:11;;;;;;;7.43;1.30;;;;;;;;;;5065477;28;20234;-66
2021/10/05 07:25:41;;;;;;;2.60;1.30;;;;;;;;;;5066739;28;20208;-66
2021/10/05 07:28:13;;;;;;;3.00;1.13;;;;;;;;;;5066482;28;20266;-66
2021/10/05 07:30:46;;;;;;;3.07;1.47;;;;;;;;;;5069128;28;20655;-66
2021/10/05 07:33:44;;;;;;;3.40;1.30;;;;;;;;;;5069479;28;20194;-66
2021/10/05 07:36:17;;;;;;;3.50;1.23;;;;;;;;;;5063936;28;20566;-67
2021/10/05 07:38:50;;;;;;;2.00;1.57;;;;;;;;;;5063866;28;20236;-67
2021/10/05 07:41:43;;;;;;;2.10;1.50;;;;;;;;;;5063891;28;20295;-67
2021/10/05 07:44:19;;;;;;;1.70;1.40;;;;;;;;;;5068622;28;20213;-67
2021/10/05 07:46:50;;;;;;;2.43;1.40;;;;;;;;;;5063184;28;20207;-66
2021/10/05 07:49:20;;;;;;;2.00;1.50;;;;;;;;;;5066576;28;20240;-66
2021/10/05 07:51:53;;;;;;;2.03;1.43;;;;;;;;;;5061447;28;20214;-66
2021/10/05 07:54:23;;;;;;;1.57;1.30;;;;;;;;;;5063584;28;20221;-66
2021/10/05 07:56:54;;;;;;;1.40;1.30;;;;;;;;;;5065160;28;20338;-66
2021/10/05 07:59:26;;;;;;;2.03;1.53;;;;;;;;;;5067582;28;20685;-66
2021/10/05 08:02:01;;;;;;;2.33;1.40;;;;;;;;;;5049035;28;20201;-67
2021/10/05 08:04:33;;;;;;;2.27;1.40;;;;;;;;;;5055135;28;20598;-66
2021/10/05 08:07:06;;;;;;;4.57;1.50;;;;;;;;;;5059426;28;20202;-67
2021/10/05 08:09:40;;;;;;;4.47;1.87;;;;;;;;;;5057130;28;20251;-66
2021/10/05 08:12:12;;;;;;;3.13;1.93;;;;;;;;;;5068111;28;20217;-66
2021/10/05 08:14:41;;;;;;;2.70;1.60;;;;;;;;;;5062565;28;20313;-66
2021/10/05 08:17:12;;;;;;;4.13;1.60;;;;;;;;;;5066435;28;20551;-67
2021/10/05 08:19:42;;;;;;;2.90;1.50;;;;;;;;;;5065522;28;20674;-66
2021/10/05 08:22:15;;;;;;;2.47;1.40;;;;;;;;;;5066635;28;20204;-66
2021/10/05 08:24:47;;;;;;;5.07;1.60;;;;;;;;;;5040324;28;20280;-67
2021/10/05 08:27:20;;;;;;;1.43;1.30;;;;;;;;;;5064496;28;20609;-67
2021/10/05 08:29:52;;;;;;;2.10;1.20;;;;;;;;;;5063425;28;20298;-66
2021/10/05 08:32:23;;;;;;;2.37;1.57;;;;;;;;;;5062518;28;20244;-67
2021/10/05 08:34:53;;;;;;;2.67;1.50;;;;;;;;;;5063761;28;20210;-66
2021/10/05 08:37:25;;;;;;;4.13;1.60;;;;;;;;;;5065690;28;20201;-66
2021/10/05 08:39:56;;;;;;;3.00;1.60;;;;;;;;;;5044865;28;20247;-66
2021/10/05 08:42:31;;;;;;;3.03;1.60;;;;;;;;;;5064399;28;20216;-66
2021/10/05 08:45:08;;;;;;;1.83;1.37;;;;;;;;;;5062717;28;20219;-66
2021/10/05 08:47:51;;;;;;;4.27;1.50;;;;;;;;;;5059185;28;20201;-67
2021/10/05 08:50:25;;;;;;;3.23;1.53;;;;;;;;;;5063696;28;20295;-66
2021/10/05 08:52:56;;;;;;;5.47;1.60;;;;;;;;;;5065812;28;20237;-65
2021/10/05 08:55:29;;;;;;;6.13;1.80;;;;;;;;;;5067902;28;20280;-65
2021/10/05 08:58:04;;;;;;;3.07;1.33;;;;;;;;;;5066062;28;20632;-66
2021/10/05 09:00:35;;;;;;;3.70;1.60;;;;;;;;;;5057649;28;20198;-67
2021/10/05 09:03:08;;;;;;;3.47;1.60;;;;;;;;;;5064733;28;20246;-67
2021/10/05 09:05:49;;;;;;;2.23;1.40;;;;;;;;;;5066255;28;20240;-67
2021/10/05 09:08:23;;;;;;;2.00;1.40;;;;;;;;;;5066020;28;20189;-67
2021/10/05 09:11:08;;;;;;;2.03;1.13;;;;;;;;;;5054217;28;20218;-66
2021/10/05 09:13:40;;;;;;;2.33;1.37;;;;;;;;;;5054193;28;20293;-66
2021/10/05 09:16:28;;;;;;;2.33;1.27;;;;;;;;;;5049654;28;20305;-65
2021/10/05 09:19:11;;;;;;;2.40;1.33;;;;;;;;;;5071706;28;20206;-66
2021/10/05 09:21:42;;;;;;;2.00;1.37;;;;;;;;;;5067689;28;20190;-66
2021/10/05 09:24:35;;;;;;;2.37;1.30;;;;;;;;;;5070926;28;20251;-66
2021/10/05 09:27:07;;;;;;;1.97;1.33;;;;;;;;;;5064723;28;20249;-67
2021/10/05 09:29:37;;;;;;;3.33;1.40;;;;;;;;;;5069703;28;20210;-66
2021/10/05 09:32:16;;;;;;;2.43;1.40;;;;;;;;;;5054628;28;20788;-66
2021/10/05 09:35:01;;;;;;;5.13;1.47;;;;;;;;;;5066027;28;20522;-65
2021/10/05 09:37:36;;;;;;;3.07;1.57;;;;;;;;;;5069963;28;20197;-66
2021/10/05 09:40:11;;;;;;;3.37;1.00;;;;;;;;;;5060179;28;20233;-65
2021/10/05 09:42:52;;;;;;;2.50;1.23;;;;;;;;;;5070791;28;20218;-65
2021/10/05 09:45:29;;;;;;;2.60;1.43;;;;;;;;;;5067016;28;20201;-65
2021/10/05 09:48:08;;;;;;;1.70;1.30;;;;;;;;;;5066379;28;20216;-65
2021/10/05 09:50:38;;;;;;;2.30;1.33;;;;;;;;;;5063444;28;20229;-66
2021/10/05 09:53:13;;;;;;;3.07;0.90;;;;;;;;;;5072278;28;20197;-66
2021/10/05 09:55:46;;;;;;;2.40;1.37;;;;;;;;;;5068984;28;20319;-65
2021/10/05 09:58:27;;;;;;;3.13;1.40;;;;;;;;;;5077340;28;20275;-66
2021/10/05 10:00:59;;;;;;;2.73;1.00;;;;;;;;;;5070701;28;20186;-69
2021/10/05 10:03:31;;;;;;;3.07;1.20;;;;;;;;;;5064351;28;20659;-68
2021/10/05 10:06:02;;;;;;;3.23;1.20;;;;;;;;;;5069778;28;20194;-68
2021/10/05 10:08:37;;;;;;;2.10;1.20;;;;;;;;;;5064786;28;20611;-68
2021/10/05 10:11:07;;;;;;;1.53;1.13;;;;;;;;;;5081340;28;20212;-65
2021/10/05 10:13:38;;;;;;;1.70;1.10;;;;;;;;;;5066404;28;20194;-65
2021/10/05 10:16:06;;;;;;;1.63;1.03;;;;;;;;;;5056279;28;20243;-65
2021/10/05 10:18:49;;;;;;;2.00;0.80;;;;;;;;;;5065166;28;20221;-65
2021/10/05 10:21:38;;;;;;;2.40;1.00;;;;;;;;;;5053069;28;20213;-64
2021/10/05 10:24:14;;;;;;;2.70;1.17;;;;;;;;;;5065822;28;20198;-65
2021/10/05 10:26:45;;;;;;;2.43;0.90;;;;;;;;;;5065495;28;20292;-68
2021/10/05 10:29:42;;;;;;;1.00;0.83;;;;;;;;;;5070042;28;20194;-68
2021/10/05 10:32:15;;;;;;;3.07;1.20;;;;;;;;;;5067250;28;20216;-67
2021/10/05 10:35:11;;;;;;;2.17;1.23;;;;;;;;;;5068083;28;20229;-67
2021/10/05 10:37:49;;;;;;;1.50;0.97;;;;;;;;;;5063621;28;20205;-65
2021/10/05 10:40:31;;;;;;;6.60;1.30;;;;;;;;;;5048020;28;20232;-67
2021/10/05 10:43:11;;;;;;;3.03;1.50;;;;;;;;;;5051171;28;20686;-67
2021/10/05 10:45:53;;;;;;;2.53;1.20;;;;;;;;;;5051366;28;20209;-67
2021/10/05 10:48:34;;;;;;;4.27;1.17;;;;;;;;;;5051164;28;20209;-67
2021/10/05 10:51:20;;;;;;;2.00;0.80;;;;;;;;;;5059229;28;20307;-67
2021/10/05 10:53:53;;;;;;;4.33;1.07;;;;;;;;;;5071731;28;20217;-67
2021/10/05 10:56:34;;;;;;;2.93;1.10;;;;;;;;;;5075672;28;20205;-67
2021/10/05 10:59:09;;;;;;;2.27;1.00;;;;;;;;;;5068448;28;20301;-67
2021/10/05 11:01:40;;;;;;;1.73;1.00;;;;;;;;;;5059381;28;20210;-68
2021/10/05 11:04:09;;;;;;;3.53;1.03;;;;;;;;;;5056254;28;20210;-67
2021/10/05 11:06:53;;;;;;;3.20;1.23;;;;;;;;;;5049389;28;20300;-67
2021/10/05 11:09:22;;;;;;;1.20;0.97;;;;;;;;;;5065268;28;20197;-67
2021/10/05 11:12:03;;;;;;;1.97;1.10;;;;;;;;;;5049796;28;20574;-67
2021/10/05 11:14:36;;;;;;;2.10;1.03;;;;;;;;;;5056684;28;20216;-67
2021/10/05 11:17:08;;;;;;;1.67;0.90;;;;;;;;;;5067216;28;20197;-67
2021/10/05 11:19:45;;;;;;;1.67;1.40;;;;;;;;;;5064530;28;20491;-65
2021/10/05 11:22:20;;;;;;;2.77;1.43;;;;;;;;;;5060871;28;20220;-66
2021/10/05 11:24:51;;;;;;;2.30;1.27;;;;;;;;;;5061219;28;20556;-65
2021/10/05 11:27:24;;;;;;;3.23;0.90;;;;;;;;;;5064184;28;20545;-65
2021/10/05 11:30:01;;;;;;;2.43;1.00;;;;;;;;;;5068077;28;20218;-65
2021/10/05 11:32:41;;;;;;;2.97;1.07;;;;;;;;;;5067245;28;20239;-65
2021/10/05 11:53:52;;;;;;;2.27;1.10;;;;;;;;;;5073829;28;20238;-66
2021/10/05 11:56:24;;;;;;;1.83;1.07;;;;;;;;;;5063849;28;20226;-64
2021/10/05 11:58:58;;;;;;;2.13;0.90;;;;;;;;;;5067912;28;20235;-64
2021/10/05 12:01:31;;;;;;;2.83;1.07;;;;;;;;;;5055164;28;20550;-65
2021/10/05 12:04:11;;;;;;;3.17;1.10;;;;;;;;;;5057521;28;20661;-64
2021/10/05 12:07:00;;;;;;;5.57;1.13;;;;;;;;;;5064293;28;20223;-66
2021/10/05 12:09:32;;;;;;;1.43;0.60;;;;;;;;;;5069036;28;20216;-66
2021/10/05 12:12:14;;;;;;;1.70;0.70;;;;;;;;;;5064250;28;20227;-64
2021/10/05 12:15:02;;;;;;;2.47;0.80;;;;;;;;;;5049891;28;20221;-65
2021/10/05 12:18:07;;;;;;;1.07;0.80;;;;;;;;;;5050039;28;20716;-65
2021/10/05 12:21:04;;;;;;;2.93;0.80;;;;;;;;;;5067141;28;20586;-66
2021/10/05 12:23:49;;;;;;;1.23;0.67;;;;;;;;;;5059452;28;20765;-66
2021/10/05 12:26:29;;;;;;;2.07;0.60;;;;;;;;;;5063416;28;20258;-64
2021/10/05 12:29:10;;;;;;;1.60;0.90;;;;;;;;;;5063243;28;20211;-66
2021/10/05 12:31:56;;;;;;;1.53;0.60;;;;;;;;;;5065278;28;20316;-66
2021/10/05 12:34:36;;;;;;;1.20;0.80;;;;;;;;;;5062999;28;20222;-67
2021/10/05 12:37:11;;;;;;;2.27;0.87;;;;;;;;;;5064269;28;20854;-66
2021/10/05 12:40:05;;;;;;;2.43;0.77;;;;;;;;;;5052593;28;20857;-66
2021/10/05 12:42:47;;;;;;;1.53;0.70;;;;;;;;;;5043795;28;20212;-65
2021/10/05 12:45:17;;;;;;;1.80;0.60;;;;;;;;;;5063561;28;20208;-65
2021/10/05 12:47:59;;;;;;;3.27;0.70;;;;;;;;;;5069597;28;20723;-65
2021/10/05 12:50:36;;;;;;;1.13;0.50;;;;;;;;;;5057676;28;20342;-65
2021/10/05 12:53:08;;;;;;;2.77;0.80;;;;;;;;;;5056129;28;20359;-65
2021/10/05 12:55:38;;;;;;;5.03;1.00;;;;;;;;;;5088809;28;20217;-65
2021/10/05 12:58:11;;;;;;;0.73;0.57;;;;;;;;;;5074207;28;20253;-65
2021/10/05 13:00:44;;;;;;;2.83;1.13;;;;;;;;;;5088856;28;20243;-67
2021/10/05 13:03:16;;;;;;;2.77;0.70;;;;;;;;;;5078963;28;20212;-66
2021/10/05 13:05:45;;;;;;;2.13;0.70;;;;;;;;;;5081475;28;20232;-64
2021/10/05 13:08:16;;;;;;;0.70;0.53;;;;;;;;;;5104270;28;20751;-64
2021/10/05 13:10:48;;;;;;;1.70;0.60;;;;;;;;;;5090828;28;20819;-66
2021/10/05 13:13:20;;;;;;;0.70;0.70;;;;;;;;;;5084586;28;20224;-66
2021/10/05 13:15:53;;;;;;;1.57;0.60;;;;;;;;;;5090489;28;20273;-66
2021/10/05 13:18:24;;;;;;;2.70;0.50;;;;;;;;;;5085218;28;20773;-65
2021/10/05 13:20:53;;;;;;;2.23;0.70;;;;;;;;;;5087499;28;20219;-65
2021/10/05 13:23:22;;;;;;;1.37;0.80;;;;;;;;;;5072671;28;20190;-66
2021/10/05 13:25:54;;;;;;;1.27;0.60;;;;;;;;;;5079470;28;20212;-65
2021/10/05 13:28:25;;;;;;;1.53;0.77;;;;;;;;;;5085392;28;20184;-66
2021/10/05 13:30:56;;;;;;;1.03;0.60;;;;;;;;;;5089068;28;20253;-67
2021/10/05 13:33:28;;;;;;;1.83;0.60;;;;;;;;;;5089494;28;20225;-67
2021/10/05 13:35:57;;;;;;;1.33;0.90;;;;;;;;;;5091966;28;20623;-67
2021/10/05 13:38:28;;;;;;;1.53;0.60;;;;;;;;;;5086900;28;20235;-67
2021/10/05 13:40:59;;;;;;;2.20;0.87;;;;;;;;;;5080909;28;20297;-68
2021/10/05 13:43:32;;;;;;;1.33;0.60;;;;;;;;;;5090522;28;20217;-69
2021/10/05 13:46:03;;;;;;;2.30;0.57;;;;;;;;;;5086654;28;20224;-67
2021/10/05 13:48:33;;;;;;;2.53;0.70;;;;;;;;;;5083331;28;20734;-67
2021/10/05 13:51:05;;;;;;;2.10;0.60;;;;;;;;;;5100156;27;20208;-67
2021/10/05 13:53:37;;;;;;;2.20;0.70;;;;;;;;;;5076452;28;20284;-68
2021/10/05 13:56:08;;;;;;;1.73;0.70;;;;;;;;;;5084807;28;20192;-68
2021/10/05 13:58:41;;;;;;;2.60;0.90;;;;;;;;;;5086307;28;20205;-68
2021/10/05 14:01:10;;;;;;;4.33;0.80;;;;;;;;;;5088752;28;20220;-69
2021/10/05 14:03:45;;;;;;;1.87;0.90;;;;;;;;;;5081296;28;20212;-68
2021/10/05 14:06:19;;;;;;;2.00;0.80;;;;;;;;;;5086397;28;20209;-68
2021/10/05 14:08:49;;;;;;;3.73;0.77;;;;;;;;;;5071437;28;20239;-68
2021/10/05 14:11:18;;;;;;;4.07;1.00;;;;;;;;;;5073872;28;20212;-68
2021/10/05 14:13:56;;;;;;;2.27;0.77;;;;;;;;;;5098946;28;20270;-69
2021/10/05 14:16:38;;;;;;;1.60;0.60;;;;;;;;;;5083718;28;20288;-66
2021/10/05 14:19:08;;;;;;;1.53;0.80;;;;;;;;;;5088295;28;20807;-66
2021/10/05 14:21:42;;;;;;;1.53;0.87;;;;;;;;;;5089531;28;20213;-68
2021/10/05 14:24:13;;;;;;;0.63;0.53;;;;;;;;;;5101670;27;20244;-68
2021/10/05 14:26:43;;;;;;;2.43;0.80;;;;;;;;;;5088392;28;20200;-67
2021/10/05 14:29:15;;;;;;;2.10;0.90;;;;;;;;;;5087033;28;20201;-66
2021/10/05 14:31:47;;;;;;;1.40;0.80;;;;;;;;;;5092671;28;20256;-68
2021/10/05 14:34:16;;;;;;;3.07;0.83;;;;;;;;;;5091774;28;20207;-68
2021/10/05 14:36:50;;;;;;;1.90;0.77;;;;;;;;;;5087312;28;20213;-67
2021/10/05 14:39:32;;;;;;;1.97;0.70;;;;;;;;;;5088317;28;20295;-66
2021/10/05 14:42:01;;;;;;;4.07;1.13;;;;;;;;;;5087187;28;20200;-66
2021/10/05 14:44:31;;;;;;;1.57;0.80;;;;;;;;;;5085221;28;20200;-67
2021/10/05 14:47:00;;;;;;;3.20;1.13;;;;;;;;;;5083271;28;20718;-68
2021/10/05 14:49:30;;;;;;;4.37;0.90;;;;;;;;;;5089135;28;20196;-68
2021/10/05 14:52:21;;;;;;;2.37;0.93;;;;;;;;;;5081445;28;20837;-68
2021/10/05 14:54:52;;;;;;;2.08;1.10;;;;;;;;;;5059537;28;20479;-70
2021/10/05 14:57:23;;;;;;;2.60;0.97;;;;;;;;;;5068578;28;20235;-71
2021/10/05 14:59:57;;;;;;;1.80;0.60;;;;;;;;;;5068318;28;20874;-71
2021/10/05 15:02:32;;;;;;;1.67;0.67;;;;;;;;;;5068667;28;20545;-71
2021/10/05 15:05:22;;;;;;;1.00;0.57;;;;;;;;;;5061812;28;20718;-71
2021/10/05 15:07:52;;;;;;;2.00;0.77;;;;;;;;;;5068384;28;20560;-71
2021/10/05 15:10:20;;;;;;;4.53;0.90;;;;;;;;;;5069594;28;20213;-72
2021/10/05 15:13:01;;;;;;;2.00;0.83;;;;;;;;;;5067434;28;20206;-73
2021/10/05 15:15:32;;;;;;;1.10;0.70;;;;;;;;;;5046435;28;20211;-72
2021/10/05 15:18:05;;;;;;;2.73;0.90;;;;;;;;;;5061671;28;20210;-71
2021/10/05 15:20:45;;;;;;;3.20;1.33;;;;;;;;;;5065259;28;20290;-73
2021/10/05 15:23:18;;;;;;;2.23;1.10;;;;;;;;;;5064981;28;20597;-71
2021/10/05 15:25:47;;;;;;;2.80;0.93;;;;;;;;;;5068128;28;20642;-72
2021/10/05 15:28:23;;;;;;;5.83;1.00;;;;;;;;;;5044190;28;20206;-71
2021/10/05 15:30:54;;;;;;;3.10;0.97;;;;;;;;;;5068092;28;20263;-71
2021/10/05 15:33:25;;;;;;;1.70;0.90;;;;;;;;;;5067799;28;21338;-71
2021/10/05 15:35:55;;;;;;;2.23;1.10;;;;;;;;;;5074876;28;20213;-72
2021/10/05 15:38:39;;;;;;;3.23;1.33;;;;;;;;;;5066101;28;20512;-76
2021/10/05 15:41:07;;;;;;;2.20;1.43;;;;;;;;;;5075069;28;20234;-73